Tiempo atmosférico en la estación meteorológica de Badajoz Aeropuerto, Badajoz (185 m.)



Fecha
DESCASC
Temp. máxima en grados centígrados (hora)
DESCASC
Temp. mínima en grados centígrados (hora)
DESCASC
Temp. media en grados centígrados
DESCASC
Racha de viento máxima en m/sg (hora)
DESCASC
Velocidad máxima media en intervalos de 10 minutos(hora)
DESCASC
Precipitaciones diarias en mm
DESCASC
Precipitaciones de 00:00 a 06:00 en mm
DESCASC
Precipitaciones de 06:00 a 12:00 en mm
DESCASC
Precipitaciones de 12:00 a 18:00 en mm
DESCASC
Precipitaciones de 18:00 a 24:00 en mm
DESCASC
01-01-2021 11.1 (13:50) 3.2 (00:00) 7.2 9.72 (15:30) 6.94 (15:30) 0 0 0 0 0
15-01-2021 10.9 (17:10) -3.2 (-00:0) 3.8 3.06 (11:50) 2.22 (16:10) 0 0 0 0 0
14-01-2021 10 (17:20) -2.1 (05:40) 4 3.06 (14:20) 1.94 (20:00) 0 0 0 0 0
13-01-2021 13 (16:40) -4.5 (-00:0) 4.3 2.78 (21:20) 1.39 (17:00) 0 0 0 0 0
12-01-2021 10.5 (17:00) -4.3 (-00:0) 3.1 3.61 (15:20) 2.22 (19:20) 0 0 0 0 0
11-01-2021 10.8 (16:10) -0.5 (-00:0) 5.2 7.22 (14:00) 4.17 (14:40) 0 0 0 0 0
10-01-2021 9.9 (15:30) 0.3 (07:40) 5.1 8.06 (16:50) 5.56 (16:50) 0 0 0 0 0
09-01-2021 4.8 (11:50) 2.3 (00:00) 3.6 8.33 (02:00) 5.28 (07:30) 0.6 0 0 0.6 0
08-01-2021 6.7 (13:40) 1.4 (00:00) 4 11.39 (14:20) 8.06 (14:20) 6.8 0 0 5 1.8
07-01-2021 8.8 (15:20) 2.5 (00:00) 5.7 7.22 (19:20) 5.28 (17:10) 0 0 0 0 0
06-01-2021 8.3 (15:50) -2.1 (-00:0) 3.1 7.78 (16:00) 5.83 (16:00) 0 0 0 0 0
05-01-2021 3.9 (17:10) -1.3 (-00:0) 1.3 5.83 (16:30) 3.61 (13:30) 0 0 0 0 0
04-01-2021 11.1 (15:30) 0.2 (00:00) 5.7 8.06 (15:50) 4.72 (17:10) 0 0 0 0 0
03-01-2021 10.8 (16:10) -1.5 (-00:0) 4.7 5.28 (20:40) 3.33 (20:50) 0 0 0 0 0
02-01-2021 10.9 (15:50) 0.8 (00:00) 5.8 7.5 (15:50) 5.28 (16:00) 0 0 0 0 0
17-12-2020 13.4 (14:10) 6.7 (00:00) 10 3.89 (01:50) 2.78 (01:50) 0 0 0 0 0
31-12-2020 13.5 (16:10) 1.2 (00:00) 7.4 9.44 (22:30) 4.72 (22:50) 0.6 0 0 0.2 0.4
30-12-2020 11.9 (15:30) 0.9 (00:00) 6.4 5.56 (15:50) 3.61 (16:10) 0 0 0 0 0
29-12-2020 12.5 (15:20) 4.1 (00:00) 8.3 12.22 (15:00) 8.06 (15:00) 0 0 0 0 0
28-12-2020 13.1 (14:50) 5.8 (00:00) 9.5 12.22 (06:40) 7.5 (07:30) 1.6 0 1.6 0 0
27-12-2020 12.7 (15:20) -2.9 (-00:0) 4.9 8.33 (23:59) 4.17 (18:00) 0 0 0 0 0
26-12-2020 10.9 (15:40) -0.5 (-00:0) 5.2 6.94 (13:20) 5.28 (13:50) 0 0 0 0 0
25-12-2020 14.2 (15:10) 3 (00:00) 8.6 10.83 (13:50) 7.78 (13:50) 0 0 0 0 0
23-12-2020 13.3 (17:10) 6.5 (00:00) 9.9 3.89 (04:30) 3.06 (04:30) 0 0 0 0 0
22-12-2020 16.9 (15:40) 6.7 (00:00) 11.8 6.39 (09:10) 3.89 (07:50) 0 0 0 0 0
21-12-2020 14.7 (15:40) 5.3 (00:00) 10 4.17 (16:20) 2.78 (15:50) 0.2 0 0 0.2 0
20-12-2020 13.2 (16:40) 7.7 (00:00) 10.4 3.33 (00:30) 2.22 (17:20) 0 0 0 0 0
24-12-2020 14.6 (15:20) 6.6 (00:00) 10.6 5.28 (18:40) 3.61 (18:40) 0.2 0.2 0 0 0
18-12-2020 11.3 (16:40) 5.2 (00:00) 8.3 4.72 (11:50) 3.33 (12:50) 0.2 0.2 0 0 0
19-12-2020 13.2 (15:50) 8.8 (00:00) 11 6.39 (10:30) 4.17 (10:30) 19.4 3.2 7.2 8.8 0.2

Gráficas

Temp. máximas Temp. mínimas Temp. medias Precipitaciones Rachas de viento máximas Velocidades máximas media en intervalos de 10 minutos

Datos horarios

Fecha y hora oficial Temperatura (ºC) Velocidad del viento (km/h) Dirección del viento Racha (km/h) Dirección de racha Precipitación (mm) Presión (hPa) Tendencia (hPa) Humedad (%)
2021-01-15 23:00:00 0.3 6 Este 8 Este 0 1005.9 -- 93
2021-01-15 22:00:00 1.7 0 Calma 6 Este 0 1005.6 -- 93
2021-01-15 21:00:00 2.7 3 Este 6 Este 0 1005.5 -- 91
2021-01-15 20:00:00 4.1 3 Este 9 Sur 0 1005.3 -- 86
2021-01-15 19:00:00 6.4 5 Sur 8 Sur 0 1005.1 -- 83
2021-01-15 18:00:00 9.2 3 Sur 5 Sur 0 1005.2 -- 72
2021-01-15 17:00:00 10.6 3 Sur 11 Sur 0 1005.2 -- 60
2021-01-15 16:00:00 8.8 7 Sur 11 Sur 0 1005.4 -- 77
2021-01-15 15:00:00 4.1 3 Sur 6 Sur 0 1006 -- 98
2021-01-15 14:00:00 1.5 3 Oeste 9 Noroeste 0 1006.9 -- 98
2021-01-15 13:00:00 0.4 3 Norte 10 Nordeste 0 1007.6 -- 98
2021-01-15 12:00:00 -0.4 6 Norte 11 Norte 0 1008.3 -- 97
2021-01-15 11:00:00 -0.8 4 Este 8 Este 0 1007.7 -- 97
2021-01-15 10:00:00 -1.4 4 Sur 6 Este 0 1007.4 -- 97
2021-01-15 09:00:00 -2 0 Calma 6 Este 0 1007.2 -- 97
2021-01-15 08:00:00 -2.4 3 Sudeste 6 Sudeste 0 1006.9 -- 97
2021-01-15 07:00:00 -3 3 Este 5 Sudeste 0 1006.5 -- 96
2021-01-15 06:00:00 -3.1 0 Calma 3 Oeste 0 1006.6 -- 96
2021-01-15 05:00:00 -2.8 2 Oeste 6 Oeste 0 1006.8 -- 96
2021-01-15 04:00:00 -2.8 3 Oeste 8 Noroeste 0 1006.6 -- 96
2021-01-15 03:00:00 -2.8 3 Sudeste 5 Este 0 1006.1 -- 95
2021-01-15 02:00:00 -2.2 2 Norte 6 Este 0 1006.3 -- 93
2021-01-15 01:00:00 -1.2 3 Este 5 Este 0 1006.2 -- 94
2021-01-15 00:00:00 0 3 Oeste 4 Oeste 0 1006.2 -- 94
2021-01-14 23:00:00 0.7 4 Oeste 5 Oeste 0 1005.9 -- 93
2021-01-14 22:00:00 1.5 0 Calma 9 Este 0 1005.6 -- 91
2021-01-14 21:00:00 2.6 4 Sudeste 9 Este 0 1005.5 -- 89
2021-01-14 20:00:00 4.1 7 Este 9 Este 0 1005.3 -- 88
2021-01-14 19:00:00 5.8 6 Este 8 Este 0 1005.3 -- 83
2021-01-14 18:00:00 9.1 3 Este 6 Este 0 1005.2 -- 74
2021-01-14 17:00:00 9.3 2 Nordeste 5 Nordeste 0 1005.2 -- 71
2021-01-14 16:00:00 7.7 3 Norte 7 Nordeste 0 1005.2 -- 78
2021-01-14 15:00:00 5.4 4 Oeste 11 Noroeste 0 1005.6 -- 92
2021-01-14 14:00:00 2.6 5 Noroeste 10 Oeste 0 1006.7 -- 97
2021-01-14 13:00:00 1.5 4 Noroeste 8 Sur 0 1007.5 -- 97
2021-01-14 12:00:00 0.5 4 Noroeste 10 Oeste 0 1008.2 -- 97
2021-01-14 11:00:00 -0.2 4 Oeste 8 Noroeste 0 1007.8 -- 97
2021-01-14 10:00:00 -0.7 4 Oeste 9 Noroeste 0 1007.4 -- 97
2021-01-14 09:00:00 -1 5 Noroeste 9 Oeste 0 1007.3 -- 96
2021-01-14 08:00:00 -1.1 4 Oeste 7 Noroeste 0 1007 -- 95
2021-01-14 07:00:00 -1.6 2 Oeste 5 Oeste 0 1006.7 -- 95
2021-01-14 06:00:00 -1.8 2 Oeste 5 Sudoeste 0 1006.7 -- 94
2021-01-14 05:00:00 -1.5 3 Oeste 5 Oeste 0 1007 -- 93
2021-01-14 04:00:00 -1.1 0 Calma 4 Sudeste 0 1007.2 -- 93
2021-01-14 03:00:00 -1.1 2 Sudeste 5 Noroeste 0 1006.8 -- 92
2021-01-14 02:00:00 -0.3 3 Oeste 5 Oeste 0 1007.1 -- 91
2021-01-14 01:00:00 0.3 2 Noroeste 5 Sur 0 1007.5 -- 86
2021-01-14 00:00:00 2.5 0 Calma 8 Sudoeste 0 1007.7 -- 80
2021-01-13 23:00:00 3.9 4 Sudoeste 8 Sudoeste 0 1007.5 -- 78
2021-01-13 22:00:00 5.1 4 Oeste 10 Sudoeste 0 1007.4 -- 71
2021-01-13 21:00:00 5.4 4 Sudoeste 9 Sudoeste 0 1007.3 -- 74
2021-01-13 20:00:00 6.4 3 Sudoeste 7 Sudoeste 0 1007.4 -- 67
2021-01-13 19:00:00 7.9 4 Sudoeste 5 Sudoeste 0 1007.1 -- 61
2021-01-13 18:00:00 11.4 2 Este 6 Noroeste 0 1007 -- 45
2021-01-13 17:00:00 12.4 5 Noroeste 9 Noroeste 0 1006.9 -- 39
2021-01-13 16:00:00 12.2 4 Noroeste 8 Oeste 0 1007 -- 41
2021-01-13 15:00:00 11.3 3 Sur 7 Sudeste 0 1007.3 -- 46
2021-01-13 14:00:00 8.7 3 Este 5 Nordeste 0 1008.1 -- 58
2021-01-13 13:00:00 5.8 2 Sudeste 7 Nordeste 0 1009.4 -- 69
2021-01-13 12:00:00 2.7 3 Nordeste 8 Nordeste 0 1010.2 -- 82
2021-01-13 11:00:00 0.2 4 Nordeste 6 Nordeste 0 1010.1 -- 91
2021-01-13 10:00:00 -2.9 2 Este 4 Sur 0 1009.8 -- 95
2021-01-13 09:00:00 -4 4 Sur 5 Sur 0 1009.3 -- 94
2021-01-13 08:00:00 -4.4 0 Calma 4 Noroeste 0 1008.8 -- 93
2021-01-13 07:00:00 -4.2 2 Noroeste 4 Noroeste 0 1008.6 -- 93
2021-01-13 06:00:00 -3.4 0 Calma 4 Sudoeste 0 1008.6 -- 93
2021-01-13 05:00:00 -3.4 3 Este 4 Este 0 1008.5 -- 93
2021-01-13 04:00:00 -3.1 2 Sudeste 4 Noroeste 0 1008.7 -- 93
2021-01-13 03:00:00 -2.8 0 Calma 4 Sur 0 1008.7 -- 92
2021-01-13 02:00:00 -2.1 2 Sur 6 Norte 0 1008.5 -- 92
2021-01-13 01:00:00 -2.1 4 Norte 5 Noroeste 0 1009.1 -- 90
2021-01-13 00:00:00 -1.5 2 Sudoeste 4 Sudeste 0 1009.2 -- 88
2021-01-12 23:00:00 -0.4 2 Sur 7 Este 0 1009 -- 83
2021-01-12 22:00:00 0.6 5 Este 6 Este 0 1008.5 -- 81
2021-01-12 21:00:00 1.4 0 Calma 4 Oeste 0 1008.4 -- 79
2021-01-12 20:00:00 3.3 0 Calma 9 Sur 0 1008.2 -- 69
2021-01-12 19:00:00 6.3 5 Sur 7 Sur 0 1007.8 -- 58
2021-01-12 18:00:00 9.4 3 Este 6 Este 0 1007.7 -- 46
2021-01-12 17:00:00 10.5 3 Este 8 Este 0 1007.4 -- 40
2021-01-12 16:00:00 10.2 5 Este 13 Nordeste 0 1007.6 -- 42
2021-01-12 15:00:00 9 6 Nordeste 10 Nordeste 0 1007.7 -- 45
2021-01-12 14:00:00 7.6 5 Este 12 Sudeste 0 1008.1 -- 53
2021-01-12 13:00:00 6 5 Este 11 Este 0 1008.8 -- 62
2021-01-12 12:00:00 3 6 Este 10 Este 0 1009.4 -- 77
2021-01-12 11:00:00 0.3 5 Nordeste 7 Nordeste 0 1009.5 -- 91
2021-01-12 10:00:00 -3 3 Este 5 Este 0 1008.7 -- 95
2021-01-12 09:00:00 -4.3 2 Norte 3 Norte 0 1008.2 -- 93
2021-01-12 08:00:00 -4.3 3 Sudeste 5 Este 0 1007.4 -- 92
2021-01-12 07:00:00 -4 3 Norte 6 Sur 0 1007 -- 91
2021-01-12 06:00:00 -3.3 3 Sudeste 6 Norte 0 1006.4 -- 93
2021-01-12 05:00:00 -3 4 Este 4 Este 0 1006.4 -- 91
2021-01-12 04:00:00 -2.5 0 Calma 5 Noroeste 0 1006.6 -- 89
2021-01-12 03:00:00 -1.8 0 Calma 3 Norte 0 1005.9 -- 85
2021-01-12 02:00:00 -0.3 0 Calma 5 Oeste 0 1005.5 -- 81
2021-01-12 01:00:00 0.7 4 Sudoeste 6 Sudoeste 0 1005.3 -- 78
2021-01-12 00:00:00 1.2 4 Oeste 10 Oeste 0 1005 -- 77
2021-01-11 23:00:00 2.1 6 Oeste 12 Oeste 0 1004.4 -- 74
2021-01-11 22:00:00 2.5 4 Oeste 7 Oeste 0 1003.8 -- 72
2021-01-11 21:00:00 3.1 2 Norte 13 Noroeste 0 1003 -- 70
2021-01-11 20:00:00 4.7 5 Este 10 Nordeste 0 1002.3 -- 62
2021-01-11 19:00:00 6 9 Nordeste 11 Norte 0 1001.5 -- 58
2021-01-11 18:00:00 9.2 4 Norte 15 Norte 0 1001 -- 46
2021-01-11 17:00:00 10.4 12 Nordeste 17 Norte 0 1000.6 -- 36
2021-01-11 16:00:00 10.7 12 Norte 21 Norte 0 1000.1 -- 39
2021-01-11 15:00:00 10.3 12 Norte 22 Nordeste 0 999.7 -- 41
2021-01-11 14:00:00 9.8 14 Nordeste 26 Nordeste 0 1000 -- 49
2021-01-11 13:00:00 8.3 10 Nordeste 19 Norte 0 1000.5 -- 53
2021-01-11 12:00:00 6.1 12 Norte 16 Norte 0 1001 -- 60
2021-01-11 11:00:00 3.6 4 Noroeste 8 Noroeste 0 1000.4 -- 68
2021-01-11 10:00:00 0.9 4 Oeste 10 Oeste 0 999.5 -- 76
2021-01-11 09:00:00 0.2 5 Oeste 9 Noroeste 0 998.5 -- 79
2021-01-11 08:00:00 -0.1 3 Oeste 10 Oeste 0 997.9 -- 83
2021-01-11 07:00:00 -0.3 4 Oeste 6 Oeste 0 997.3 -- 86
2021-01-11 06:00:00 -0.1 0 Calma 5 Norte 0 996.6 -- 85
2021-01-11 05:00:00 0.5 0 Calma 8 Norte 0 996.7 -- 85
2021-01-11 04:00:00 1 2 Noroeste 7 Norte 0 996.7 -- 86
2021-01-11 03:00:00 0.8 0 Calma 7 Sudoeste 0 996.3 -- 87
2021-01-11 02:00:00 1.2 4 Oeste 10 Norte 0 995.8 -- 85
2021-01-11 01:00:00 1.5 3 Sudoeste 13 Norte 0 995.4 -- 85
2021-01-11 00:00:00 1.4 6 Norte 12 Norte 0 995.1 -- 84
2021-01-10 23:00:00 2.4 5 Norte 8 Norte 0 994.7 -- 80
2021-01-10 22:00:00 2.9 4 Norte 13 Norte 0 993.9 -- 79
2021-01-10 21:00:00 3.3 9 Norte 14 Norte 0 993.3 -- 78
2021-01-10 20:00:00 4.4 12 Norte 17 Nordeste 0 992.6 -- 74
2021-01-10 19:00:00 5.4 9 Norte 17 Nordeste 0 992.1 -- 71
2021-01-10 18:00:00 8 17 Nordeste 28 Nordeste 0 991.4 -- 59
2021-01-10 17:00:00 9.5 17 Norte 29 Norte 0 990.7 -- 58
2021-01-10 16:00:00 8.9 13 Norte 24 Norte 0 990.4 -- 59
2021-01-10 15:00:00 9.3 13 Norte 23 Norte 0 990.2 -- 58
2021-01-10 14:00:00 8.2 14 Noroeste 21 Noroeste 0 990 -- 66
2021-01-10 13:00:00 8.2 12 Norte 24 Nordeste 0 990.3 -- 70
2021-01-10 12:00:00 6.5 8 Nordeste 17 Nordeste 0 990.6 -- 78
2021-01-10 11:00:00 3.7 11 Nordeste 24 Norte 0 990.2 -- 88
2021-01-10 10:00:00 2.4 10 Nordeste 18 Norte 0 989.3 -- 94
2021-01-10 09:00:00 1.1 7 Norte 14 Norte 0 988.4 -- 95
2021-01-10 08:00:00 0.5 10 Norte 14 Norte 0 987.2 -- 95
2021-01-10 07:00:00 0.8 7 Norte 13 Norte 0 986.4 -- 93
2021-01-10 06:00:00 1.8 10 Norte 16 Norte 0 985.6 -- 93
2021-01-10 05:00:00 2.9 8 Norte 12 Nordeste 0 985.4 -- 93
2021-01-10 04:00:00 2.6 8 Norte 12 Norte 0 985.3 -- 94
2021-01-10 03:00:00 2.3 7 Norte 10 Norte 0 985 -- 94
2021-01-10 02:00:00 2.5 7 Norte 9 Norte 0 984.6 -- 93
2021-01-10 01:00:00 2.7 6 Norte 9 Norte 0 984.4 -- 93
2021-01-10 00:00:00 2.7 6 Norte 10 Norte 0 984.4 -- 92
2021-01-09 23:00:00 2.7 8 Noroeste 10 Norte 0 984.3 -- 93
2021-01-09 22:00:00 2.6 6 Noroeste 9 Noroeste 0 983.8 -- 94
2021-01-09 21:00:00 2.4 6 Oeste 13 Noroeste 0 983.5 -- 95
2021-01-09 20:00:00 2.4 8 Noroeste 11 Noroeste 0 983.4 -- 94
2021-01-09 19:00:00 2.5 6 Noroeste 14 Oeste 0 983.1 -- 94
2021-01-09 18:00:00 2.6 8 Oeste 14 Noroeste 0.2 982.9 -- 93
2021-01-09 17:00:00 2.8 6 Oeste 13 Oeste 0.2 982.5 -- 93
2021-01-09 16:00:00 2.8 9 Oeste 17 Noroeste 0 982.1 -- 93
2021-01-09 15:00:00 2.7 10 Oeste 16 Noroeste 0.2 982 -- 92
2021-01-09 14:00:00 3.2 7 Oeste 17 Oeste 0 982.1 -- 89
2021-01-09 13:00:00 4.3 10 Oeste 21 Noroeste 0 982.7 -- 76
2021-01-09 12:00:00 4.7 15 Oeste 21 Noroeste 0 982.8 -- 70
2021-01-09 11:00:00 4.3 12 Oeste 20 Oeste 0 982.6 -- 74
2021-01-09 10:00:00 3.8 9 Oeste 17 Oeste 0 982.1 -- 75
2021-01-09 09:00:00 3.6 10 Oeste 22 Noroeste 0 981.6 -- 77
2021-01-09 08:00:00 4 17 Noroeste 28 Noroeste 0 981.1 -- 74
2021-01-09 07:00:00 4.3 15 Noroeste 24 Noroeste 0 980.7 -- 75
2021-01-09 06:00:00 4.3 15 Noroeste 22 Noroeste 0 980.6 -- 76
2021-01-09 05:00:00 4.5 16 Noroeste 22 Noroeste 0 980.4 -- 75
2021-01-09 04:00:00 4.6 18 Norte 28 Norte 0 980.7 -- 80
2021-01-09 03:00:00 4.3 10 Noroeste 26 Noroeste 0 980.8 -- 83
2021-01-09 02:00:00 4.1 18 Noroeste 30 Noroeste 0 981 -- 85
2021-01-09 01:00:00 4.2 9 Noroeste 16 Norte 0 981 -- 90
2021-01-09 00:00:00 4.1 11 Norte 21 Norte 0 980.8 -- 90
2021-01-08 23:00:00 4 8 Norte 23 Norte 0 981.2 -- 92
2021-01-08 22:00:00 4 16 Norte 31 Norte 0 981.3 -- 90
2021-01-08 21:00:00 3.9 16 Norte 23 Nordeste 0.8 981.3 -- 92
2021-01-08 20:00:00 4 13 Norte 26 Norte 0.4 981.2 -- 91
2021-01-08 19:00:00 4 17 Norte 27 Norte 0.6 980.9 -- 91
2021-01-08 18:00:00 4.2 19 Norte 28 Norte 1.8 980.8 -- 91
2021-01-08 17:00:00 5 18 Nordeste 26 Nordeste 1.2 981.1 -- 89
2021-01-08 16:00:00 5.7 15 Nordeste 28 Nordeste 2 981.4 -- 87
2021-01-08 15:00:00 6.1 15 Nordeste 41 Nordeste 0 981.4 -- 84
2021-01-08 14:00:00 6.5 22 Nordeste 36 Este 0 982.5 -- 82
2021-01-08 13:00:00 6.6 19 Nordeste 28 Nordeste 0 983.7 -- 72
2021-01-08 12:00:00 6.4 20 Nordeste 28 Nordeste 0 984.9 -- 70
2021-01-08 11:00:00 4.8 16 Nordeste 22 Nordeste 0 985.2 -- 74
2021-01-08 10:00:00 3.5 13 Norte 24 Nordeste 0 985.4 -- 75
2021-01-08 09:00:00 3 18 Nordeste 27 Norte 0 984.8 -- 73
2021-01-08 08:00:00 3 17 Norte 24 Nordeste 0 985.3 -- 74
2021-01-08 07:00:00 2.9 15 Nordeste 21 Norte 0 985.5 -- 76
2021-01-08 06:00:00 2.4 14 Norte 21 Nordeste 0 985.4 -- 82
2021-01-08 05:00:00 2.4 14 Nordeste 18 Nordeste 0 986 -- 82
2021-01-08 04:00:00 2.2 10 Nordeste 16 Nordeste 0 987.1 -- 86
2021-01-08 03:00:00 1.4 9 Norte 11 Norte 0 987.3 -- 88
2021-01-08 02:00:00 1.8 5 Este 14 Nordeste 0 987.6 -- 86
2021-01-08 01:00:00 2.6 9 Nordeste 16 Nordeste 0 988.2 -- 83
2021-01-08 00:00:00 3.6 14 Nordeste 22 Nordeste 0 988.4 -- 79
2021-01-07 23:00:00 3.2 8 Nordeste 19 Nordeste 0 988.7 -- 83
2021-01-07 22:00:00 4.5 14 Nordeste 23 Nordeste 0 988.7 -- 79
2021-01-07 21:00:00 5 13 Nordeste 24 Nordeste 0 988.6 -- 80
2021-01-07 20:00:00 6.3 15 Nordeste 26 Este 0 988.5 -- 76
2021-01-07 19:00:00 6.6 14 Este 22 Este 0 988.6 -- 76
2021-01-07 18:00:00 7.3 13 Nordeste 26 Nordeste 0 988 -- 72
2021-01-07 17:00:00 8.1 15 Nordeste 24 Nordeste 0 987.8 -- 69
2021-01-07 16:00:00 8.3 16 Nordeste 26 Este 0 987.9 -- 68
2021-01-07 15:00:00 8.3 17 Nordeste 24 Nordeste 0 988 -- 68
2021-01-07 14:00:00 8 13 Nordeste 23 Nordeste 0 988.1 -- 68
2021-01-07 13:00:00 7.5 15 Nordeste 23 Nordeste 0 988.9 -- 69
2021-01-07 12:00:00 6.5 14 Nordeste 19 Nordeste 0 989 -- 71
2021-01-07 11:00:00 5.1 6 Norte 10 Nordeste 0 989.4 -- 75
2021-01-07 10:00:00 3.7 4 Norte 7 Nordeste 0 988.5 -- 77
2021-01-07 09:00:00 3.5 6 Nordeste 9 Nordeste 0 987.7 -- 75
2021-01-07 08:00:00 3.6 6 Norte 10 Norte 0 987.2 -- 75
2021-01-07 07:00:00 4 3 Nordeste 8 Norte 0 987 -- 75
2021-01-07 06:00:00 3.4 4 Oeste 6 Noroeste 0 986.9 -- 75
2021-01-07 05:00:00 3 2 Nordeste 8 Noroeste 0 986.8 -- 80
2021-01-07 04:00:00 2.8 2 Oeste 5 Norte 0 986.9 -- 79
2021-01-07 03:00:00 2.7 3 Oeste 7 Nordeste 0 987.1 -- 81
2021-01-07 02:00:00 2.5 3 Noroeste 8 Norte 0 987.3 -- 81
2021-01-07 01:00:00 3.2 5 Noroeste 9 Nordeste 0 987.4 -- 79
2021-01-07 00:00:00 3.6 9 Nordeste 10 Este 0 987.4 -- 80
2021-01-06 23:00:00 3.9 2 Nordeste 9 Nordeste 0 987.9 -- 78
2021-01-06 22:00:00 3.9 6 Nordeste 10 Nordeste 0 987.8 -- 78
2021-01-06 21:00:00 4.4 5 Nordeste 7 Nordeste 0 988.2 -- 75
2021-01-06 20:00:00 4.9 4 Nordeste 12 Nordeste 0 988.3 -- 74
2021-01-06 19:00:00 5.3 9 Nordeste 10 Nordeste 0 988.4 -- 74
2021-01-06 18:00:00 6.8 6 Este 20 Este 0 988.6 -- 65
2021-01-06 17:00:00 7.9 15 Este 28 Este 0 988.6 -- 57
2021-01-06 16:00:00 8.2 21 Este 28 Este 0 988.8 -- 53
2021-01-06 15:00:00 7.5 15 Este 27 Este 0 989 -- 58
2021-01-06 14:00:00 6.9 17 Este 27 Este 0 989.7 -- 64
2021-01-06 13:00:00 4.5 15 Nordeste 21 Este 0 990.9 -- 80
2021-01-06 12:00:00 1.5 8 Nordeste 14 Este 0 991.9 -- 99
2021-01-06 11:00:00 -0.3 9 Nordeste 12 Nordeste 0 992.2 -- 99
2021-01-06 10:00:00 -1.9 7 Este 10 Este 0 991.8 -- 98
2021-01-06 09:00:00 -2 8 Nordeste 12 Nordeste 0 991.3 -- 98
2021-01-06 08:00:00 -1.6 8 Nordeste 12 Nordeste 0 991.1 -- 98
2021-01-06 07:00:00 -1.2 8 Nordeste 11 Nordeste 0 990.6 -- 98
2021-01-06 06:00:00 -0.9 6 Nordeste 11 Este 0 990.2 -- 98
2021-01-06 05:00:00 -0.9 6 Este 12 Este 0 990.1 -- 98
2021-01-06 04:00:00 -0.6 6 Este 12 Sudeste 0 990.2 -- 97
2021-01-06 03:00:00 0.2 7 Este 12 Sudeste 0 990 -- 97
2021-01-06 02:00:00 0.9 7 Nordeste 10 Nordeste 0 989.9 -- 97
2021-01-06 01:00:00 1.5 4 Este 8 Este 0 990.2 -- 97
2021-01-06 00:00:00 1.8 6 Este 9 Nordeste 0 990 -- 97
2021-01-05 23:00:00 2.1 6 Nordeste 11 Nordeste 0 989.9 -- 97
2021-01-05 22:00:00 2.4 4 Nordeste 11 Este 0 990 -- 97
2021-01-05 21:00:00 2.5 7 Este 13 Este 0 990 -- 96
2021-01-05 20:00:00 2.7 6 Este 11 Este 0 989.8 -- 96
2021-01-05 19:00:00 2.9 7 Este 15 Este 0 989.7 -- 95
2021-01-05 18:00:00 3.5 10 Este 18 Este 0 989.2 -- 95
2021-01-05 17:00:00 3.8 12 Este 21 Este 0 989.2 -- 97
2021-01-05 16:00:00 3.3 13 Este 19 Este 0 989.2 -- 97
2021-01-05 15:00:00 3 12 Este 20 Este 0 989.7 -- 98
2021-01-05 14:00:00 2.5 10 Este 18 Nordeste 0 990.4 -- 98
2021-01-05 13:00:00 2.5 12 Nordeste 17 Este 0 991.1 -- 98
2021-01-05 12:00:00 2.2 8 Este 15 Nordeste 0 991.8 -- 98
2021-01-05 11:00:00 1.3 8 Nordeste 13 Este 0 992 -- 98
2021-01-05 10:00:00 1 5 Nordeste 11 Este 0 991.7 -- 97
2021-01-05 09:00:00 0.7 5 Este 10 Este 0 991.2 -- 97
2021-01-05 08:00:00 -0.2 0 Calma 9 Sudeste 0 990.8 -- 97
2021-01-05 07:00:00 -1 3 Este 8 Este 0 990.5 -- 97
2021-01-05 06:00:00 -1.2 0 Calma 6 Norte 0 990.1 -- 96
2021-01-05 05:00:00 -1.2 0 Calma 7 Norte 0 990.5 -- 96
2021-01-05 04:00:00 0 4 Sudoeste 6 Sur 0 990.6 -- 95
2021-01-05 03:00:00 -0.3 0 Calma 5 Nordeste 0 990.3 -- 93
2021-01-05 02:00:00 0.5 6 Norte 9 Norte 0 990.5 -- 91
2021-01-05 01:00:00 1.2 2 Sur 8 Sudoeste 0 990.7 -- 91
2021-01-05 00:00:00 2.3 0 Calma 6 Sudoeste 0 991 -- 91
2021-01-04 23:00:00 4.1 5 Sudoeste 8 Sudoeste 0 990.7 -- 89
2021-01-04 22:00:00 4.2 4 Sudoeste 8 Oeste 0 991 -- 88
2021-01-04 21:00:00 5.2 3 Oeste 12 Sudoeste 0 991 -- 81
2021-01-04 20:00:00 7.1 7 Oeste 16 Sudoeste 0 991 -- 76
2021-01-04 19:00:00 8.1 7 Oeste 14 Oeste 0 990.4 -- 69
2021-01-04 18:00:00 9 10 Oeste 24 Noroeste 0 990.3 -- 64
2021-01-04 17:00:00 10.8 11 Oeste 25 Oeste 0 990 -- 57
2021-01-04 16:00:00 10.1 12 Oeste 29 Oeste 0 990.1 -- 59
2021-01-04 15:00:00 10.6 13 Oeste 24 Oeste 0 990.4 -- 65
2021-01-04 14:00:00 9.7 8 Sudoeste 22 Oeste 0 991.2 -- 76
2021-01-04 13:00:00 7.4 8 Oeste 21 Oeste 0 992.5 -- 84
2021-01-04 12:00:00 7.6 10 Oeste 18 Oeste 0 993.1 -- 83
2021-01-04 11:00:00 4.8 4 Oeste 10 Oeste 0 993.3 -- 97
2021-01-04 10:00:00 1.9 2 Sur 3 Sudeste 0 993.5 -- 97
2021-01-04 09:00:00 0.8 2 Este 4 Nordeste 0 993.3 -- 96
2021-01-04 08:00:00 0.5 4 Este 5 Este 0 993.4 -- 96
2021-01-04 07:00:00 0.3 0 Calma 7 Noroeste 0 993.2 -- 95
2021-01-04 06:00:00 0.5 3 Norte 4 Norte 0 993.2 -- 93
2021-01-04 05:00:00 1.3 2 Oeste 6 Oeste 0 993.8 -- 93
2021-01-04 04:00:00 1.4 2 Norte 9 Oeste 0 994.2 -- 91
2021-01-04 03:00:00 2.3 3 Noroeste 9 Sudoeste 0 994.1 -- 88
2021-01-04 02:00:00 2.6 4 Sudoeste 8 Sudoeste 0 994.2 -- 88
2021-01-04 01:00:00 2.4 3 Noroeste 10 Oeste 0 994.6 -- 86
2021-01-04 00:00:00 3.6 4 Sudoeste 15 Oeste 0 994.8 -- 84
2021-01-03 23:00:00 4.5 9 Oeste 17 Oeste 0 994.9 -- 81
2021-01-03 22:00:00 5.2 10 Oeste 17 Oeste 0 995.3 -- 80
2021-01-03 21:00:00 6.1 10 Oeste 19 Oeste 0 995.3 -- 76
2021-01-03 20:00:00 5.2 4 Sudoeste 10 Sudoeste 0 995.2 -- 77
2021-01-03 19:00:00 6.8 4 Sudoeste 12 Oeste 0 995.1 -- 68
2021-01-03 18:00:00 9 6 Oeste 17 Oeste 0 995.2 -- 59
2021-01-03 17:00:00 10.7 8 Oeste 18 Oeste 0 995 -- 54
2021-01-03 16:00:00 10.7 8 Oeste 18 Oeste 0 995.5 -- 55
2021-01-03 15:00:00 9.9 9 Oeste 15 Oeste 0 995.7 -- 58
2021-01-03 14:00:00 8.9 10 Oeste 17 Noroeste 0 996.3 -- 64
2021-01-03 13:00:00 7.6 4 Oeste 10 Oeste 0 997.1 -- 71
2021-01-03 12:00:00 4.9 6 Oeste 9 Oeste 0 998.1 -- 83
2021-01-03 11:00:00 2.3 4 Oeste 8 Oeste 0 998 -- 91
2021-01-03 10:00:00 0 3 Oeste 6 Sudoeste 0 997.8 -- 94
2021-01-03 09:00:00 -0.7 3 Sudoeste 6 Sudoeste 0 997.6 -- 94
2021-01-03 08:00:00 -0.7 3 Sudoeste 6 Sudoeste 0 997.3 -- 94
2021-01-03 07:00:00 -1.4 4 Sur 5 Sur 0 996.7 -- 93
2021-01-03 06:00:00 -1.5 0 Calma 7 Oeste 0 996.7 -- 90
2021-01-03 05:00:00 -0.1 4 Oeste 8 Oeste 0 996.9 -- 90
2021-01-03 04:00:00 0.4 5 Sudoeste 11 Oeste 0 997.1 -- 90
2021-01-03 03:00:00 0 4 Sudoeste 9 Este 0 996.8 -- 89
2021-01-03 02:00:00 0.4 4 Oeste 10 Oeste 0 996.9 -- 87
2021-01-03 01:00:00 1.2 6 Oeste 12 Oeste 0 996.9 -- 87
2021-01-03 00:00:00 2.2 6 Oeste 9 Oeste 0 997 -- 85
2021-01-02 23:00:00 2.7 2 Sudoeste 8 Noroeste 0 996.7 -- 82
2021-01-02 22:00:00 2.8 7 Noroeste 13 Nordeste 0 996.8 -- 79
2021-01-02 21:00:00 5.1 5 Oeste 9 Oeste 0 996.4 -- 69
2021-01-02 20:00:00 6.1 6 Oeste 12 Oeste 0 995.9 -- 63
2021-01-02 19:00:00 6.1 9 Noroeste 15 Noroeste 0 995.7 -- 64
2021-01-02 18:00:00 7.8 9 Noroeste 20 Norte 0 995.4 -- 57
2021-01-02 17:00:00 10.3 15 Noroeste 23 Noroeste 0 995.1 -- 43
2021-01-02 16:00:00 10.6 19 Noroeste 27 Noroeste 0 994.7 -- 45
2021-01-02 15:00:00 10.4 11 Noroeste 20 Noroeste 0 994.7 -- 49
2021-01-02 14:00:00 9.4 7 Noroeste 17 Noroeste 0 995.3 -- 58